Almeria, NE

6:25 AM CST on December 19, 2014 (GMT -0600)
The O'Neill Municipal-Baker | Change Station
CLOSE
Current Station
Airport
Location: O'Neill,
Elevation: 2031 ft
Nearby Weather Stations

Elev 2031 ft 42.47 °N, 98.69 °W | Updated 10 minutes ago

Fog
Fog
27 °F
Feels Like 20 °F
N
6
Wind Variable Wind from South

Today
High -- | Low -- °F
--% Chance of Precip.
Yesterday
High -- | Low -- °F
Precip. -- in
8:00 AM 5:09 PM
Waning Crescent, 8% visible
Pressure 30.09 in
Visibility 0.8 miles
Clouds Overcast 100 ft
Windchill 20 °F
Dew Point 27 °F
Humidity 100%
Rainfall 0.00 in
Snow Depth Not available.
UV 0 out of 12
Pollen .10 out of 12
Air Quality Not available.
Flu Activity Not available.
METAR KONL 191215Z AUTO 19005KT 3/4SM BR OVC001 M03/M03 A3009 RMK AO2 T10301030

More Conditions Fewer Conditions

Pressure 30.09 in
Visibility 0.8 miles
Clouds Overcast 100 ft
Windchill 20 °F
Dew Point 27 °F
Humidity 100%
Rainfall 0.00 in
Snow Depth Not available.
UV 0 out of 12
Pollen .10 out of 12
Air Quality Not available.
Flu Activity Not available.
METAR KONL 191215Z AUTO 19005KT 3/4SM BR OVC001 M03/M03 A3009 RMK AO2 T10301030

More Conditions Fewer Conditions

Nowcast | as of 5:48 am CST on December 19, 2014

A narrow corridor of locally dense fog will continue to be observed for areas near a line from Curtis...Brady...Brewster and Bassett. The fog will persist through daybreak...then gradually lift and end by 10 am CST.

×

10-Day Weather Forecast

Almanac

Astronomy

Dec. 19, 2014 Rise Set
Actual Time
Civil Twilight
Nautical Twilight
Astronomical Twilight
Moon
Length of Visible Light
Length of Day
Tomorrow will be .
, % of the Moon is Illuminated

Today's Extremes

State Highs State Lows

Community

WunderPhotos

Upload Photos

1,778,970 photos uploaded!

WunderBlogs® & News

Nearby

Air Quality

  Air Quality AQ Index Pollutant
Not available.

Snow Depth

Station Depth Elevation

Earthquake Activity

City Distance Mag. Time & Date
Minimum magnitude displayed is 2.5.

Coastal Water Temperatures

Place Temperature

Nearby Weather Stations